sensor_id;sensor_type;location;lat;lon;timestamp;P1;durP1;ratioP1;P2;durP2;ratioP2
35675;SDS011;21790;42.668;23.298;2023-10-09T00:48:49;9.00;;;1.92;;
35675;SDS011;21790;42.668;23.298;2023-10-09T00:51:17;6.60;;;2.13;;
35675;SDS011;21790;42.668;23.298;2023-10-09T00:53:57;7.03;;;2.35;;
35675;SDS011;21790;42.668;23.298;2023-10-09T00:56:31;11.38;;;2.53;;
35675;SDS011;21790;42.668;23.298;2023-10-09T00:59:04;8.60;;;1.98;;
35675;SDS011;21790;42.668;23.298;2023-10-09T02:07:49;5.13;;;1.70;;
35675;SDS011;21790;42.668;23.298;2023-10-09T02:10:18;5.75;;;1.80;;
35675;SDS011;21790;42.668;23.298;2023-10-09T02:12:57;6.05;;;2.53;;
35675;SDS011;21790;42.668;23.298;2023-10-09T02:15:36;7.40;;;1.80;;
35675;SDS011;21790;42.668;23.298;2023-10-09T02:18:09;8.25;;;2.13;;
35675;SDS011;21790;42.668;23.298;2023-10-09T02:20:43;4.00;;;1.90;;
35675;SDS011;21790;42.668;23.298;2023-10-09T02:23:12;6.93;;;1.63;;
35675;SDS011;21790;42.668;23.298;2023-10-09T02:25:42;6.43;;;1.63;;
35675;SDS011;21790;42.668;23.298;2023-10-09T02:28:09;7.05;;;1.63;;
35675;SDS011;21790;42.668;23.298;2023-10-09T02:30:44;11.77;;;1.70;;
35675;SDS011;21790;42.668;23.298;2023-10-09T02:33:16;8.68;;;2.03;;
35675;SDS011;21790;42.668;23.298;2023-10-09T02:38:34;6.35;;;1.75;;
35675;SDS011;21790;42.668;23.298;2023-10-09T02:41:05;5.43;;;1.80;;
35675;SDS011;21790;42.668;23.298;2023-10-09T02:43:32;6.07;;;1.65;;
35675;SDS011;21790;42.668;23.298;2023-10-09T02:46:06;6.70;;;1.70;;
35675;SDS011;21790;42.668;23.298;2023-10-09T02:48:39;10.60;;;1.77;;
35675;SDS011;21790;42.668;23.298;2023-10-09T02:51:15;4.15;;;1.60;;
35675;SDS011;21790;42.668;23.298;2023-10-09T02:54:02;6.57;;;1.60;;
35675;SDS011;21790;42.668;23.298;2023-10-09T02:56:47;2.75;;;1.10;;
35675;SDS011;21790;42.668;23.298;2023-10-09T02:59:31;4.40;;;1.70;;
35675;SDS011;21790;42.668;23.298;2023-10-09T03:01:57;3.80;;;1.25;;
35675;SDS011;21790;42.668;23.298;2023-10-09T03:04:27;7.47;;;1.95;;
35675;SDS011;21790;42.668;23.298;2023-10-09T03:07:00;6.70;;;1.52;;
35675;SDS011;21790;42.668;23.298;2023-10-09T03:09:26;5.18;;;1.80;;
35675;SDS011;21790;42.668;23.298;2023-10-09T03:11:54;6.95;;;1.52;;
35675;SDS011;21790;42.668;23.298;2023-10-09T03:14:28;2.35;;;1.20;;
35675;SDS011;21790;42.668;23.298;2023-10-09T03:16:56;9.52;;;2.58;;
35675;SDS011;21790;42.668;23.298;2023-10-09T03:19:24;2.38;;;1.15;;
35675;SDS011;21790;42.668;23.298;2023-10-09T03:21:51;4.00;;;1.48;;
35675;SDS011;21790;42.668;23.298;2023-10-09T03:24:17;3.20;;;1.55;;
35675;SDS011;21790;42.668;23.298;2023-10-09T03:26:44;6.22;;;1.52;;
35675;SDS011;21790;42.668;23.298;2023-10-09T03:29:10;3.17;;;1.27;;
35675;SDS011;21790;42.668;23.298;2023-10-09T03:31:37;6.78;;;1.40;;
35675;SDS011;21790;42.668;23.298;2023-10-09T03:34:04;3.90;;;1.10;;
35675;SDS011;21790;42.668;23.298;2023-10-09T03:36:34;7.85;;;1.50;;
35675;SDS011;21790;42.668;23.298;2023-10-09T03:39:05;4.82;;;1.13;;
35675;SDS011;21790;42.668;23.298;2023-10-09T03:42:03;4.03;;;1.08;;
35675;SDS011;21790;42.668;23.298;2023-10-09T03:44:30;1.70;;;1.20;;
35675;SDS011;21790;42.668;23.298;2023-10-09T03:49:35;3.35;;;1.17;;
35675;SDS011;21790;42.668;23.298;2023-10-09T03:52:04;4.05;;;1.17;;
35675;SDS011;21790;42.668;23.298;2023-10-09T03:57:06;2.45;;;1.17;;
35675;SDS011;21790;42.668;23.298;2023-10-09T03:59:33;2.10;;;1.17;;
35675;SDS011;21790;42.668;23.298;2023-10-09T04:04:41;6.10;;;1.65;;
35675;SDS011;21790;42.668;23.298;2023-10-09T04:07:12;4.53;;;1.90;;
35675;SDS011;21790;42.668;23.298;2023-10-09T04:09:38;3.35;;;1.17;;
35675;SDS011;21790;42.668;23.298;2023-10-09T04:12:09;10.32;;;1.17;;
35675;SDS011;21790;42.668;23.298;2023-10-09T04:14:35;14.10;;;1.73;;
35675;SDS011;21790;42.668;23.298;2023-10-09T04:17:01;3.90;;;1.73;;
35675;SDS011;21790;42.668;23.298;2023-10-09T04:19:34;4.40;;;1.40;;
35675;SDS011;21790;42.668;23.298;2023-10-09T04:22:13;4.95;;;1.20;;
35675;SDS011;21790;42.668;23.298;2023-10-09T04:24:52;3.92;;;1.08;;
35675;SDS011;21790;42.668;23.298;2023-10-09T04:27:17;2.42;;;1.23;;
35675;SDS011;21790;42.668;23.298;2023-10-09T04:29:51;3.53;;;1.20;;
35675;SDS011;21790;42.668;23.298;2023-10-09T04:32:19;2.08;;;0.85;;
35675;SDS011;21790;42.668;23.298;2023-10-09T04:34:50;2.47;;;1.13;;
35675;SDS011;21790;42.668;23.298;2023-10-09T04:37:21;5.63;;;1.67;;
35675;SDS011;21790;42.668;23.298;2023-10-09T04:40:08;10.02;;;1.00;;
35675;SDS011;21790;42.668;23.298;2023-10-09T04:42:56;5.72;;;1.20;;
35675;SDS011;21790;42.668;23.298;2023-10-09T04:45:25;3.38;;;1.13;;
35675;SDS011;21790;42.668;23.298;2023-10-09T04:48:09;7.03;;;1.20;;
35675;SDS011;21790;42.668;23.298;2023-10-09T04:50:35;4.25;;;1.00;;
35675;SDS011;21790;42.668;23.298;2023-10-09T04:53:12;5.72;;;1.20;;
35675;SDS011;21790;42.668;23.298;2023-10-09T04:55:41;1.75;;;1.20;;
35675;SDS011;21790;42.668;23.298;2023-10-09T04:58:21;3.45;;;1.20;;
35675;SDS011;21790;42.668;23.298;2023-10-09T05:00:51;2.42;;;1.25;;
35675;SDS011;21790;42.668;23.298;2023-10-09T05:03:24;3.35;;;1.45;;
35675;SDS011;21790;42.668;23.298;2023-10-09T05:05:54;5.72;;;1.42;;
35675;SDS011;21790;42.668;23.298;2023-10-09T05:08:24;9.95;;;1.95;;
35675;SDS011;21790;42.668;23.298;2023-10-09T05:11:02;10.77;;;3.85;;
35675;SDS011;21790;42.668;23.298;2023-10-09T05:13:29;30.45;;;8.13;;
35675;SDS011;21790;42.668;23.298;2023-10-09T05:16:15;22.98;;;10.40;;
35675;SDS011;21790;42.668;23.298;2023-10-09T05:18:50;20.17;;;7.68;;
35675;SDS011;21790;42.668;23.298;2023-10-09T05:21:37;18.40;;;5.88;;
35675;SDS011;21790;42.668;23.298;2023-10-09T05:24:09;8.90;;;4.97;;
35675;SDS011;21790;42.668;23.298;2023-10-09T05:26:39;16.88;;;6.03;;
35675;SDS011;21790;42.668;23.298;2023-10-09T05:29:14;21.83;;;10.68;;
35675;SDS011;21790;42.668;23.298;2023-10-09T05:32:06;7.43;;;3.47;;
35675;SDS011;21790;42.668;23.298;2023-10-09T05:34:37;16.42;;;6.72;;
35675;SDS011;21790;42.668;23.298;2023-10-09T05:37:23;10.60;;;2.38;;
35675;SDS011;21790;42.668;23.298;2023-10-09T05:39:54;3.50;;;1.40;;
35675;SDS011;21790;42.668;23.298;2023-10-09T05:45:13;3.35;;;1.75;;
35675;SDS011;21790;42.668;23.298;2023-10-09T05:50:27;6.93;;;1.40;;
35675;SDS011;21790;42.668;23.298;2023-10-09T05:52:59;6.45;;;2.05;;
35675;SDS011;21790;42.668;23.298;2023-10-09T05:55:25;3.47;;;1.50;;
35675;SDS011;21790;42.668;23.298;2023-10-09T05:58:12;8.55;;;1.13;;
35675;SDS011;21790;42.668;23.298;2023-10-09T06:00:57;6.90;;;1.20;;
35675;SDS011;21790;42.668;23.298;2023-10-09T06:03:46;4.22;;;1.80;;
35675;SDS011;21790;42.668;23.298;2023-10-09T06:06:24;7.00;;;1.33;;
35675;SDS011;21790;42.668;23.298;2023-10-09T06:09:08;3.88;;;0.80;;
35675;SDS011;21790;42.668;23.298;2023-10-09T06:11:40;4.72;;;1.15;;
35675;SDS011;21790;42.668;23.298;2023-10-09T06:17:14;11.98;;;6.68;;
35675;SDS011;21790;42.668;23.298;2023-10-09T06:19:49;11.63;;;5.20;;
35675;SDS011;21790;42.668;23.298;2023-10-09T06:22:23;7.75;;;3.88;;
35675;SDS011;21790;42.668;23.298;2023-10-09T06:25:01;9.18;;;4.93;;
35675;SDS011;21790;42.668;23.298;2023-10-09T06:27:37;9.10;;;4.35;;
35675;SDS011;21790;42.668;23.298;2023-10-09T06:30:17;16.38;;;6.22;;
35675;SDS011;21790;42.668;23.298;2023-10-09T06:32:42;12.75;;;3.65;;
35675;SDS011;21790;42.668;23.298;2023-10-09T06:35:24;7.47;;;3.65;;
35675;SDS011;21790;42.668;23.298;2023-10-09T06:37:55;7.65;;;3.75;;
35675;SDS011;21790;42.668;23.298;2023-10-09T06:40:36;5.32;;;2.50;;
35675;SDS011;21790;42.668;23.298;2023-10-09T06:43:22;7.35;;;3.25;;
35675;SDS011;21790;42.668;23.298;2023-10-09T06:48:26;5.97;;;2.97;;
35675;SDS011;21790;42.668;23.298;2023-10-09T06:51:05;3.63;;;1.75;;
35675;SDS011;21790;42.668;23.298;2023-10-09T06:56:18;2.08;;;1.23;;
35675;SDS011;21790;42.668;23.298;2023-10-09T06:58:54;3.58;;;1.95;;
35675;SDS011;21790;42.668;23.298;2023-10-09T07:01:21;5.28;;;2.10;;
35675;SDS011;21790;42.668;23.298;2023-10-09T07:03:53;3.38;;;1.98;;
35675;SDS011;21790;42.668;23.298;2023-10-09T07:06:20;6.97;;;2.42;;
35675;SDS011;21790;42.668;23.298;2023-10-09T07:08:53;10.40;;;4.18;;
35675;SDS011;21790;42.668;23.298;2023-10-09T07:11:35;2.03;;;1.13;;
35675;SDS011;21790;42.668;23.298;2023-10-09T07:14:05;6.68;;;1.10;;
35675;SDS011;21790;42.668;23.298;2023-10-09T07:16:56;7.78;;;2.47;;
35675;SDS011;21790;42.668;23.298;2023-10-09T07:19:30;2.60;;;1.63;;
35675;SDS011;21790;42.668;23.298;2023-10-09T07:21:59;7.32;;;1.67;;
35675;SDS011;21790;42.668;23.298;2023-10-09T07:24:41;3.88;;;1.92;;
35675;SDS011;21790;42.668;23.298;2023-10-09T07:27:16;7.45;;;2.25;;
35675;SDS011;21790;42.668;23.298;2023-10-09T07:29:42;6.95;;;2.70;;
35675;SDS011;21790;42.668;23.298;2023-10-09T07:32:17;6.93;;;2.60;;
35675;SDS011;21790;42.668;23.298;2023-10-09T07:34:49;4.35;;;1.48;;
35675;SDS011;21790;42.668;23.298;2023-10-09T07:37:23;4.50;;;1.40;;
35675;SDS011;21790;42.668;23.298;2023-10-09T07:39:55;3.78;;;1.15;;
35675;SDS011;21790;42.668;23.298;2023-10-09T07:42:25;3.00;;;1.00;;
35675;SDS011;21790;42.668;23.298;2023-10-09T07:45:00;3.45;;;1.30;;
35675;SDS011;21790;42.668;23.298;2023-10-09T07:47:37;2.33;;;1.50;;
35675;SDS011;21790;42.668;23.298;2023-10-09T07:50:44;3.45;;;1.20;;
35675;SDS011;21790;42.668;23.298;2023-10-09T07:53:15;4.22;;;1.30;;
35675;SDS011;21790;42.668;23.298;2023-10-09T07:55:45;2.47;;;1.27;;
35675;SDS011;21790;42.668;23.298;2023-10-09T07:58:23;2.22;;;1.10;;
35675;SDS011;21790;42.668;23.298;2023-10-09T08:00:53;2.28;;;1.23;;
35675;SDS011;21790;42.668;23.298;2023-10-09T08:03:33;3.58;;;1.70;;
35675;SDS011;21790;42.668;23.298;2023-10-09T08:06:00;2.28;;;1.20;;
35675;SDS011;21790;42.668;23.298;2023-10-09T08:08:52;3.53;;;1.48;;
35675;SDS011;21790;42.668;23.298;2023-10-09T08:11:38;4.35;;;0.90;;
35675;SDS011;21790;42.668;23.298;2023-10-09T08:14:23;4.90;;;1.38;;
35675;SDS011;21790;42.668;23.298;2023-10-09T08:16:58;8.30;;;1.27;;
35675;SDS011;21790;42.668;23.298;2023-10-09T08:19:50;8.82;;;1.27;;
35675;SDS011;21790;42.668;23.298;2023-10-09T08:22:23;4.00;;;1.80;;
35675;SDS011;21790;42.668;23.298;2023-10-09T08:24:49;4.63;;;1.80;;
35675;SDS011;21790;42.668;23.298;2023-10-09T08:27:23;6.05;;;2.20;;
35675;SDS011;21790;42.668;23.298;2023-10-09T08:30:02;3.05;;;1.08;;
35675;SDS011;21790;42.668;23.298;2023-10-09T08:32:49;5.90;;;1.27;;
35675;SDS011;21790;42.668;23.298;2023-10-09T08:35:50;6.15;;;1.40;;
35675;SDS011;21790;42.668;23.298;2023-10-09T08:40:48;7.43;;;2.67;;
35675;SDS011;21790;42.668;23.298;2023-10-09T08:43:19;8.48;;;2.15;;
35675;SDS011;21790;42.668;23.298;2023-10-09T08:45:46;3.80;;;1.57;;
35675;SDS011;21790;42.668;23.298;2023-10-09T08:48:19;2.92;;;1.20;;
35675;SDS011;21790;42.668;23.298;2023-10-09T08:50:50;3.13;;;1.48;;
35675;SDS011;21790;42.668;23.298;2023-10-09T08:53:20;4.25;;;1.27;;
35675;SDS011;21790;42.668;23.298;2023-10-09T08:55:49;2.38;;;1.30;;
35675;SDS011;21790;42.668;23.298;2023-10-09T08:58:16;1.70;;;1.20;;
35675;SDS011;21790;42.668;23.298;2023-10-09T09:01:06;3.33;;;1.48;;
35675;SDS011;21790;42.668;23.298;2023-10-09T09:03:38;5.25;;;1.60;;
35675;SDS011;21790;42.668;23.298;2023-10-09T09:06:07;2.90;;;1.30;;
35675;SDS011;21790;42.668;23.298;2023-10-09T09:08:33;5.25;;;1.40;;
35675;SDS011;21790;42.668;23.298;2023-10-09T14:59:03;7.68;;;2.75;;
35675;SDS011;21790;42.668;23.298;2023-10-09T15:51:26;12.85;;;5.90;;
35675;SDS011;21790;42.668;23.298;2023-10-09T15:53:55;18.60;;;10.30;;
35675;SDS011;21790;42.668;23.298;2023-10-09T15:59:50;15.93;;;5.32;;
35675;SDS011;21790;42.668;23.298;2023-10-09T16:04:50;17.02;;;4.53;;
35675;SDS011;21790;42.668;23.298;2023-10-09T16:10:44;30.17;;;9.25;;
35675;SDS011;21790;42.668;23.298;2023-10-09T16:13:11;21.27;;;6.15;;
35675;SDS011;21790;42.668;23.298;2023-10-09T16:19:02;20.20;;;6.28;;
35675;SDS011;21790;42.668;23.298;2023-10-09T16:30:23;15.85;;;5.63;;
35675;SDS011;21790;42.668;23.298;2023-10-09T16:32:55;17.73;;;5.03;;
35675;SDS011;21790;42.668;23.298;2023-10-09T16:44:56;9.02;;;4.38;;
35675;SDS011;21790;42.668;23.298;2023-10-09T16:50:45;16.58;;;4.25;;
35675;SDS011;21790;42.668;23.298;2023-10-09T16:53:24;14.20;;;4.07;;
35675;SDS011;21790;42.668;23.298;2023-10-09T17:02:34;20.23;;;5.07;;
35675;SDS011;21790;42.668;23.298;2023-10-09T17:05:21;16.73;;;4.73;;
35675;SDS011;21790;42.668;23.298;2023-10-09T17:33:03;18.63;;;4.85;;
35675;SDS011;21790;42.668;23.298;2023-10-09T17:41:01;14.30;;;4.97;;
35675;SDS011;21790;42.668;23.298;2023-10-09T17:49:56;14.75;;;5.70;;
35675;SDS011;21790;42.668;23.298;2023-10-09T17:55:51;20.83;;;6.40;;
35675;SDS011;21790;42.668;23.298;2023-10-09T17:58:40;20.42;;;6.03;;
35675;SDS011;21790;42.668;23.298;2023-10-09T18:10:58;15.98;;;5.30;;
35675;SDS011;21790;42.668;23.298;2023-10-09T18:40:22;19.05;;;4.90;;
35675;SDS011;21790;42.668;23.298;2023-10-09T18:49:12;20.20;;;6.10;;
35675;SDS011;21790;42.668;23.298;2023-10-09T18:51:39;19.33;;;6.97;;
35675;SDS011;21790;42.668;23.298;2023-10-09T18:54:05;26.77;;;7.05;;
35675;SDS011;21790;42.668;23.298;2023-10-09T18:56:34;21.20;;;6.82;;
35675;SDS011;21790;42.668;23.298;2023-10-09T18:59:01;20.20;;;6.30;;
35675;SDS011;21790;42.668;23.298;2023-10-09T19:04:07;28.65;;;7.78;;
35675;SDS011;21790;42.668;23.298;2023-10-09T19:06:35;19.15;;;6.07;;
35675;SDS011;21790;42.668;23.298;2023-10-09T19:09:06;23.38;;;7.78;;
35675;SDS011;21790;42.668;23.298;2023-10-09T19:11:35;23.48;;;6.93;;
35675;SDS011;21790;42.668;23.298;2023-10-09T19:14:04;14.63;;;6.13;;
35675;SDS011;21790;42.668;23.298;2023-10-09T19:16:34;20.08;;;6.30;;
35675;SDS011;21790;42.668;23.298;2023-10-09T19:19:00;23.10;;;7.40;;
35675;SDS011;21790;42.668;23.298;2023-10-09T19:21:30;25.90;;;7.72;;
35675;SDS011;21790;42.668;23.298;2023-10-09T19:23:58;24.40;;;7.43;;
35675;SDS011;21790;42.668;23.298;2023-10-09T19:26:23;19.73;;;7.05;;
35675;SDS011;21790;42.668;23.298;2023-10-09T19:28:54;16.88;;;6.78;;
35675;SDS011;21790;42.668;23.298;2023-10-09T19:31:19;32.63;;;7.10;;
35675;SDS011;21790;42.668;23.298;2023-10-09T19:33:47;23.98;;;6.75;;
35675;SDS011;21790;42.668;23.298;2023-10-09T19:36:14;19.10;;;6.75;;
35675;SDS011;21790;42.668;23.298;2023-10-09T19:38:40;19.35;;;6.00;;
35675;SDS011;21790;42.668;23.298;2023-10-09T19:41:08;21.15;;;6.25;;
35675;SDS011;21790;42.668;23.298;2023-10-09T19:43:36;11.43;;;5.57;;
35675;SDS011;21790;42.668;23.298;2023-10-09T19:46:06;17.55;;;6.15;;
35675;SDS011;21790;42.668;23.298;2023-10-09T19:48:32;16.13;;;5.75;;
35675;SDS011;21790;42.668;23.298;2023-10-09T19:51:03;12.82;;;5.20;;
35675;SDS011;21790;42.668;23.298;2023-10-09T19:53:32;14.07;;;5.65;;
35675;SDS011;21790;42.668;23.298;2023-10-09T19:56:01;17.52;;;6.68;;
35675;SDS011;21790;42.668;23.298;2023-10-09T19:58:27;14.23;;;5.25;;
35675;SDS011;21790;42.668;23.298;2023-10-09T20:00:56;16.27;;;5.68;;
35675;SDS011;21790;42.668;23.298;2023-10-09T20:03:22;17.05;;;5.63;;
35675;SDS011;21790;42.668;23.298;2023-10-09T20:05:48;15.40;;;6.32;;
35675;SDS011;21790;42.668;23.298;2023-10-09T20:08:14;17.38;;;5.20;;
35675;SDS011;21790;42.668;23.298;2023-10-09T20:10:40;21.02;;;6.50;;
35675;SDS011;21790;42.668;23.298;2023-10-09T20:13:07;23.27;;;6.05;;
35675;SDS011;21790;42.668;23.298;2023-10-09T20:15:34;12.77;;;5.20;;
35675;SDS011;21790;42.668;23.298;2023-10-09T20:18:10;13.35;;;4.88;;
35675;SDS011;21790;42.668;23.298;2023-10-09T20:20:36;13.52;;;5.55;;
35675;SDS011;21790;42.668;23.298;2023-10-09T20:23:10;15.48;;;6.25;;
35675;SDS011;21790;42.668;23.298;2023-10-09T20:25:39;18.70;;;5.50;;
35675;SDS011;21790;42.668;23.298;2023-10-09T20:28:05;16.98;;;5.47;;
35675;SDS011;21790;42.668;23.298;2023-10-09T20:30:34;14.32;;;5.30;;
35675;SDS011;21790;42.668;23.298;2023-10-09T20:33:00;18.75;;;6.10;;
35675;SDS011;21790;42.668;23.298;2023-10-09T20:35:26;16.02;;;5.00;;
35675;SDS011;21790;42.668;23.298;2023-10-09T20:37:52;18.77;;;5.78;;
35675;SDS011;21790;42.668;23.298;2023-10-09T20:40:22;12.35;;;5.22;;
35675;SDS011;21790;42.668;23.298;2023-10-09T20:42:49;17.23;;;5.05;;
35675;SDS011;21790;42.668;23.298;2023-10-09T20:45:16;15.45;;;5.55;;
35675;SDS011;21790;42.668;23.298;2023-10-09T20:47:45;16.02;;;6.05;;
35675;SDS011;21790;42.668;23.298;2023-10-09T20:50:13;15.73;;;5.72;;
35675;SDS011;21790;42.668;23.298;2023-10-09T20:52:45;27.42;;;5.05;;
35675;SDS011;21790;42.668;23.298;2023-10-09T20:55:16;15.20;;;5.65;;
35675;SDS011;21790;42.668;23.298;2023-10-09T20:57:54;27.83;;;5.65;;
35675;SDS011;21790;42.668;23.298;2023-10-09T21:00:21;16.15;;;5.45;;
35675;SDS011;21790;42.668;23.298;2023-10-09T21:02:52;12.35;;;4.78;;
35675;SDS011;21790;42.668;23.298;2023-10-09T21:05:19;14.15;;;5.30;;
35675;SDS011;21790;42.668;23.298;2023-10-09T21:07:46;14.10;;;4.82;;
35675;SDS011;21790;42.668;23.298;2023-10-09T21:10:13;13.20;;;5.70;;
35675;SDS011;21790;42.668;23.298;2023-10-09T21:12:40;14.07;;;5.60;;
35675;SDS011;21790;42.668;23.298;2023-10-09T21:15:07;12.57;;;4.97;;
35675;SDS011;21790;42.668;23.298;2023-10-09T21:17:36;18.92;;;5.55;;
35675;SDS011;21790;42.668;23.298;2023-10-09T21:20:06;14.18;;;5.15;;
35675;SDS011;21790;42.668;23.298;2023-10-09T21:22:40;15.32;;;5.00;;
35675;SDS011;21790;42.668;23.298;2023-10-09T21:25:08;20.60;;;4.90;;
35675;SDS011;21790;42.668;23.298;2023-10-09T21:27:34;16.63;;;4.88;;
35675;SDS011;21790;42.668;23.298;2023-10-09T21:30:00;10.70;;;4.40;;
35675;SDS011;21790;42.668;23.298;2023-10-09T21:32:26;22.50;;;4.95;;
35675;SDS011;21790;42.668;23.298;2023-10-09T21:34:55;14.07;;;4.88;;
35675;SDS011;21790;42.668;23.298;2023-10-09T21:37:21;12.77;;;5.22;;
35675;SDS011;21790;42.668;23.298;2023-10-09T21:39:46;15.65;;;5.45;;
35675;SDS011;21790;42.668;23.298;2023-10-09T21:42:17;13.63;;;5.50;;
35675;SDS011;21790;42.668;23.298;2023-10-09T21:44:43;12.65;;;4.28;;
35675;SDS011;21790;42.668;23.298;2023-10-09T21:47:08;13.02;;;4.80;;
35675;SDS011;21790;42.668;23.298;2023-10-09T21:49:34;12.32;;;3.95;;
35675;SDS011;21790;42.668;23.298;2023-10-09T21:52:00;16.63;;;4.55;;
35675;SDS011;21790;42.668;23.298;2023-10-09T21:54:26;14.63;;;5.50;;
35675;SDS011;21790;42.668;23.298;2023-10-09T21:56:53;11.18;;;4.50;;
35675;SDS011;21790;42.668;23.298;2023-10-09T21:59:19;12.13;;;4.03;;
35675;SDS011;21790;42.668;23.298;2023-10-09T22:01:49;12.68;;;4.13;;
35675;SDS011;21790;42.668;23.298;2023-10-09T22:04:15;13.35;;;4.57;;
35675;SDS011;21790;42.668;23.298;2023-10-09T22:06:40;14.32;;;4.25;;
35675;SDS011;21790;42.668;23.298;2023-10-09T22:09:08;16.23;;;5.03;;
35675;SDS011;21790;42.668;23.298;2023-10-09T22:11:33;13.30;;;4.95;;
35675;SDS011;21790;42.668;23.298;2023-10-09T22:14:01;14.07;;;4.28;;
35675;SDS011;21790;42.668;23.298;2023-10-09T22:16:26;12.30;;;4.60;;
35675;SDS011;21790;42.668;23.298;2023-10-09T22:18:52;28.05;;;12.02;;
35675;SDS011;21790;42.668;23.298;2023-10-09T22:21:17;16.23;;;4.85;;
35675;SDS011;21790;42.668;23.298;2023-10-09T22:23:43;60.53;;;29.95;;
35675;SDS011;21790;42.668;23.298;2023-10-09T22:26:14;24.17;;;10.35;;
35675;SDS011;21790;42.668;23.298;2023-10-09T22:28:41;71.10;;;34.35;;
35675;SDS011;21790;42.668;23.298;2023-10-09T22:31:10;20.92;;;9.02;;
35675;SDS011;21790;42.668;23.298;2023-10-09T22:33:36;18.80;;;7.47;;
35675;SDS011;21790;42.668;23.298;2023-10-09T22:36:22;21.50;;;8.60;;
35675;SDS011;21790;42.668;23.298;2023-10-09T22:38:51;21.88;;;5.72;;
35675;SDS011;21790;42.668;23.298;2023-10-09T22:41:23;11.75;;;4.97;;
35675;SDS011;21790;42.668;23.298;2023-10-09T22:43:49;21.33;;;6.45;;
35675;SDS011;21790;42.668;23.298;2023-10-09T22:46:24;14.38;;;6.72;;
35675;SDS011;21790;42.668;23.298;2023-10-09T22:48:51;20.00;;;8.48;;
35675;SDS011;21790;42.668;23.298;2023-10-09T22:51:24;26.67;;;11.68;;
35675;SDS011;21790;42.668;23.298;2023-10-09T22:53:55;12.15;;;5.70;;
35675;SDS011;21790;42.668;23.298;2023-10-09T22:56:25;14.55;;;5.28;;
35675;SDS011;21790;42.668;23.298;2023-10-09T22:58:54;16.75;;;5.00;;
35675;SDS011;21790;42.668;23.298;2023-10-09T23:01:21;14.27;;;5.28;;
35675;SDS011;21790;42.668;23.298;2023-10-09T23:03:53;12.18;;;4.82;;
35675;SDS011;21790;42.668;23.298;2023-10-09T23:06:38;9.68;;;4.65;;
35675;SDS011;21790;42.668;23.298;2023-10-09T23:09:09;10.60;;;4.88;;
35675;SDS011;21790;42.668;23.298;2023-10-09T23:11:45;11.48;;;4.88;;
35675;SDS011;21790;42.668;23.298;2023-10-09T23:14:22;15.68;;;4.82;;
35675;SDS011;21790;42.668;23.298;2023-10-09T23:16:56;14.57;;;5.45;;
35675;SDS011;21790;42.668;23.298;2023-10-09T23:19:28;10.45;;;4.13;;
35675;SDS011;21790;42.668;23.298;2023-10-09T23:21:58;12.68;;;5.30;;
35675;SDS011;21790;42.668;23.298;2023-10-09T23:27:25;11.98;;;4.63;;
35675;SDS011;21790;42.668;23.298;2023-10-09T23:30:13;13.60;;;4.88;;
35675;SDS011;21790;42.668;23.298;2023-10-09T23:32:48;17.42;;;4.95;;
35675;SDS011;21790;42.668;23.298;2023-10-09T23:35:38;13.85;;;5.93;;
35675;SDS011;21790;42.668;23.298;2023-10-09T23:38:14;12.98;;;4.70;;
35675;SDS011;21790;42.668;23.298;2023-10-09T23:40:43;17.27;;;5.22;;
35675;SDS011;21790;42.668;23.298;2023-10-09T23:43:10;11.25;;;4.50;;
35675;SDS011;21790;42.668;23.298;2023-10-09T23:46:08;18.95;;;4.95;;
35675;SDS011;21790;42.668;23.298;2023-10-09T23:48:34;10.55;;;4.55;;
35675;SDS011;21790;42.668;23.298;2023-10-09T23:51:02;12.48;;;4.97;;
35675;SDS011;21790;42.668;23.298;2023-10-09T23:53:31;13.27;;;5.03;;
35675;SDS011;21790;42.668;23.298;2023-10-09T23:56:04;18.08;;;5.60;;
35675;SDS011;21790;42.668;23.298;2023-10-09T23:58:36;14.18;;;5.15;;
